Time;durP1;ratioP1;P1;durP2;ratioP2;P2;SDS_P1;SDS_P2;PMS_P1;PMS_P2;Temp;Humidity;BMP_temperature;BMP_pressure;BME280_temperature;BME280_humidity;BME280_pressure;Samples;Min_cycle;Max_cycle;Signal;HPM_P1;HPM_P2
2022/11/27 00:46:48;;;;;;;7.17;2.63;;;6.90;99.90;;;;;;4961709;27;4406427;-88
2022/11/27 00:49:20;;;;;;;7.40;2.30;;;6.90;99.90;;;;;;5110222;28;20666;-87
2022/11/27 00:51:51;;;;;;;8.20;2.30;;;6.90;99.90;;;;;;5109585;28;20206;-87
2022/11/27 00:54:22;;;;;;;8.63;2.27;;;6.90;99.90;;;;;;5108881;28;20211;-87
2022/11/27 00:56:53;;;;;;;9.50;2.30;;;6.90;99.90;;;;;;5109587;28;20240;-89
2022/11/27 00:59:25;;;;;;;9.57;2.37;;;6.90;99.90;;;;;;5109900;28;20198;-88
2022/11/27 01:01:59;;;;;;;10.27;2.47;;;6.90;99.90;;;;;;5091302;28;20235;-91
2022/11/27 01:04:31;;;;;;;10.37;2.27;;;7.00;99.90;;;;;;5091642;28;20217;-88
2022/11/27 01:07:03;;;;;;;15.40;2.50;;;7.00;99.90;;;;;;5091907;28;20234;-96
2022/11/27 01:09:33;;;;;;;7.57;2.20;;;7.00;99.90;;;;;;5107328;28;20233;-89
2022/11/27 01:12:05;;;;;;;6.57;2.23;;;7.00;99.90;;;;;;5107933;28;20234;-88
2022/11/27 01:14:36;;;;;;;7.80;2.10;;;7.00;99.90;;;;;;5110487;28;20242;-85
2022/11/27 01:17:09;;;;;;;11.20;2.43;;;7.00;99.90;;;;;;5108676;28;20206;-86
2022/11/27 01:19:41;;;;;;;5.60;1.93;;;6.90;99.90;;;;;;5088409;28;20560;-86
2022/11/27 01:22:11;;;;;;;9.37;2.30;;;6.90;99.90;;;;;;5109537;28;20282;-89
2022/11/27 01:24:43;;;;;;;8.43;2.17;;;6.80;99.90;;;;;;5113281;28;20207;-85
2022/11/27 01:27:14;;;;;;;6.47;2.37;;;6.80;99.90;;;;;;5125781;28;20218;-87
2022/11/27 01:29:46;;;;;;;10.97;2.90;;;6.70;99.90;;;;;;5117559;28;20585;-84
2022/11/27 01:32:19;;;;;;;10.43;2.53;;;6.70;99.90;;;;;;5107490;28;20206;-85
2022/11/27 01:34:50;;;;;;;8.10;2.03;;;6.60;99.90;;;;;;5119120;28;20218;-86
2022/11/27 01:37:23;;;;;;;7.33;2.27;;;6.60;99.90;;;;;;5090840;28;20215;-86
2022/11/27 01:39:54;;;;;;;8.87;2.10;;;6.60;99.90;;;;;;5109008;28;20287;-85
2022/11/27 01:42:25;;;;;;;7.83;2.57;;;6.50;99.90;;;;;;5106669;28;20234;-87
2022/11/27 01:44:57;;;;;;;6.77;2.17;;;6.50;99.90;;;;;;5108244;28;20293;-84
2022/11/27 01:47:46;;;;;;;5.53;2.07;;;6.50;99.90;;;;;;5107424;28;20202;-93
2022/11/27 01:50:23;;;;;;;8.17;2.17;;;6.50;99.90;;;;;;5110774;28;20274;-89
2022/11/27 01:52:59;;;;;;;5.83;2.23;;;6.40;99.90;;;;;;5108380;28;20209;-89
2022/11/27 01:55:33;;;;;;;10.90;1.93;;;6.40;99.90;;;;;;5101632;28;20297;-91
2022/11/27 01:58:11;;;;;;;6.03;1.63;;;6.40;99.90;;;;;;5095226;28;20270;-88
2022/11/27 02:00:42;;;;;;;5.30;2.03;;;6.40;99.90;;;;;;5089820;28;20281;-89
2022/11/27 02:03:17;;;;;;;6.13;1.93;;;6.40;99.90;;;;;;5090512;28;20282;-87
2022/11/27 02:05:49;;;;;;;9.37;1.90;;;6.40;99.90;;;;;;5085019;28;20322;-88
2022/11/27 02:08:24;;;;;;;9.43;2.20;;;6.40;99.90;;;;;;5091981;28;20585;-87
2022/11/27 02:11:00;;;;;;;7.47;2.00;;;6.40;99.90;;;;;;5074309;28;20207;-88
2022/11/27 02:13:36;;;;;;;7.30;1.90;;;6.40;99.90;;;;;;5079752;28;20195;-88
2022/11/27 02:16:17;;;;;;;5.83;1.83;;;6.40;99.90;;;;;;5075173;28;20302;-86
2022/11/27 02:19:02;;;;;;;6.17;1.70;;;6.40;99.90;;;;;;5073842;28;20614;-88
2022/11/27 02:21:40;;;;;;;5.40;1.70;;;6.50;99.90;;;;;;5077132;28;20212;-89
2022/11/27 02:24:43;;;;;;;12.37;1.87;;;6.50;99.90;;;;;;5081866;28;20297;-88
2022/11/27 02:27:38;;;;;;;4.77;1.83;;;6.50;99.90;;;;;;5079864;28;20786;-87
2022/11/27 02:30:12;;;;;;;9.13;2.77;;;6.50;99.90;;;;;;5070974;28;20302;-87
2022/11/27 02:32:51;;;;;;;7.80;2.13;;;6.60;99.90;;;;;;5087462;28;20264;-87
2022/11/27 02:35:28;;;;;;;6.07;1.60;;;6.60;99.90;;;;;;5073692;28;20299;-86
2022/11/27 02:38:02;;;;;;;5.70;1.63;;;6.60;99.90;;;;;;5090204;28;20644;-88
2022/11/27 02:40:39;;;;;;;4.67;1.83;;;6.60;99.90;;;;;;5086648;28;20732;-90
2022/11/27 02:43:13;;;;;;;5.73;1.77;;;6.60;99.90;;;;;;5060227;28;20206;-89
2022/11/27 02:45:50;;;;;;;4.73;2.13;;;6.60;99.90;;;;;;5084787;28;20234;-90
2022/11/27 02:48:25;;;;;;;4.47;1.33;;;6.60;99.90;;;;;;5090458;28;20702;-87
2022/11/27 02:50:57;;;;;;;2.77;1.70;;;6.70;99.90;;;;;;5083188;28;20217;-87
2022/11/27 02:53:38;;;;;;;3.00;1.90;;;6.70;99.90;;;;;;5087411;28;20242;-90
2022/11/27 02:56:17;;;;;;;4.73;1.50;;;6.70;99.90;;;;;;5090638;28;20346;-86
2022/11/27 02:58:50;;;;;;;2.93;1.20;;;6.80;99.90;;;;;;5091002;28;20203;-87
2022/11/27 03:01:27;;;;;;;3.67;1.50;;;6.70;99.90;;;;;;5095569;28;20206;-86
2022/11/27 03:04:02;;;;;;;6.90;1.50;;;6.80;99.90;;;;;;5074692;28;20277;-88
2022/11/27 03:06:41;;;;;;;2.93;1.13;;;6.80;99.90;;;;;;5093597;28;20226;-87
2022/11/27 03:09:18;;;;;;;4.93;1.40;;;6.80;99.90;;;;;;5094868;28;20249;-86
2022/11/27 03:11:51;;;;;;;2.27;1.13;;;6.80;99.90;;;;;;5093409;28;20210;-85
2022/11/27 03:14:25;;;;;;;2.67;1.08;;;6.80;99.90;;;;;;4736599;28;10000565;-86
2022/11/27 03:17:07;;;;;;;2.37;1.10;;;6.90;99.90;;;;;;5090469;28;20220;-86
2022/11/27 03:19:45;;;;;;;5.37;1.47;;;6.90;99.90;;;;;;5083804;28;20260;-91
2022/11/27 03:22:17;;;;;;;2.37;0.97;;;7.00;99.90;;;;;;5087367;28;20259;-87
2022/11/27 03:24:49;;;;;;;2.70;1.10;;;7.00;99.90;;;;;;5083168;28;20272;-88
2022/11/27 03:27:28;;;;;;;2.67;1.00;;;7.00;99.90;;;;;;5092739;28;20596;-87
2022/11/27 03:30:02;;;;;;;3.67;1.20;;;7.00;99.90;;;;;;5092981;28;20743;-88
2022/11/27 03:32:38;;;;;;;1.87;1.00;;;7.00;99.90;;;;;;5090739;28;20210;-87
2022/11/27 03:35:12;;;;;;;3.60;1.20;;;7.00;99.90;;;;;;5087249;28;20231;-88
2022/11/27 03:37:44;;;;;;;2.03;1.03;;;7.00;99.90;;;;;;5089863;28;20269;-85
2022/11/27 03:40:16;;;;;;;1.23;0.80;;;7.10;99.90;;;;;;5092125;28;20303;-87
2022/11/27 03:42:59;;;;;;;2.50;0.90;;;7.00;99.90;;;;;;5089365;28;20214;-88
2022/11/27 03:45:36;;;;;;;1.47;1.27;;;7.10;99.90;;;;;;5099517;28;20208;-90
2022/11/27 03:48:22;;;;;;;2.13;1.13;;;7.10;99.90;;;;;;5089512;28;20269;-90
2022/11/27 03:51:10;;;;;;;2.00;1.27;;;7.10;99.90;;;;;;5089044;28;20302;-88
2022/11/27 03:53:53;;;;;;;2.87;1.03;;;7.10;99.90;;;;;;5088518;28;20221;-88
2022/11/27 03:56:35;;;;;;;2.80;1.03;;;7.10;99.90;;;;;;5091348;28;20204;-87
2022/11/27 03:59:13;;;;;;;3.67;1.20;;;7.20;99.90;;;;;;5091998;28;20202;-86
2022/11/27 04:01:45;;;;;;;1.93;0.90;;;7.10;99.90;;;;;;5084848;28;20199;-86
2022/11/27 04:04:18;;;;;;;1.83;1.17;;;7.20;99.90;;;;;;5081854;28;20215;-87
2022/11/27 04:06:50;;;;;;;2.63;1.13;;;7.20;99.90;;;;;;5088758;28;20254;-87
2022/11/27 04:09:21;;;;;;;3.20;1.23;;;7.20;99.90;;;;;;5086874;28;20302;-86
2022/11/27 04:11:52;;;;;;;3.57;1.20;;;7.20;99.90;;;;;;5089573;28;20206;-87
2022/11/27 04:14:23;;;;;;;2.77;1.30;;;7.20;99.90;;;;;;5083598;28;20268;-88
2022/11/27 04:16:56;;;;;;;2.17;1.30;;;7.20;99.90;;;;;;5086179;28;20256;-88
2022/11/27 04:19:31;;;;;;;1.87;1.40;;;7.20;99.90;;;;;;5087514;28;20208;-89
2022/11/27 04:22:02;;;;;;;1.47;0.90;;;7.30;99.90;;;;;;5090912;28;20297;-88
2022/11/27 04:24:34;;;;;;;1.60;0.97;;;7.30;99.90;;;;;;5096115;28;20305;-89
2022/11/27 04:27:06;;;;;;;1.63;0.87;;;7.30;99.90;;;;;;5105423;28;20233;-89
2022/11/27 04:29:38;;;;;;;3.17;1.20;;;7.30;99.90;;;;;;5083838;28;20226;-89
2022/11/27 04:32:10;;;;;;;3.93;1.20;;;7.20;99.90;;;;;;5090199;28;20211;-89
2022/11/27 04:34:44;;;;;;;2.20;0.77;;;7.20;99.90;;;;;;5088786;28;20203;-88
2022/11/27 04:37:16;;;;;;;1.90;0.90;;;7.30;99.90;;;;;;5088665;28;20199;-87
2022/11/27 04:39:48;;;;;;;1.50;0.90;;;7.30;99.90;;;;;;5086479;28;20198;-88
2022/11/27 04:42:19;;;;;;;1.33;0.60;;;7.30;99.90;;;;;;5085349;28;20217;-88
2022/11/27 04:44:52;;;;;;;1.37;0.80;;;7.30;99.90;;;;;;5087397;28;20245;-89
2022/11/27 04:47:24;;;;;;;1.80;0.70;;;7.30;99.90;;;;;;5092024;28;20227;-88
2022/11/27 04:49:59;;;;;;;2.57;0.60;;;7.30;99.90;;;;;;5087446;28;20279;-89
2022/11/27 04:52:30;;;;;;;1.10;0.87;;;7.40;99.90;;;;;;5089239;28;20223;-90
2022/11/27 04:55:02;;;;;;;1.43;0.70;;;7.40;99.90;;;;;;5092278;28;20222;-89
2022/11/27 04:57:33;;;;;;;2.83;1.20;;;7.40;99.90;;;;;;5091643;28;20203;-88
2022/11/27 05:00:06;;;;;;;2.07;0.70;;;7.40;99.90;;;;;;5091534;28;20220;-88
2022/11/27 05:02:40;;;;;;;2.97;0.73;;;7.40;99.90;;;;;;5091927;28;20229;-88
2022/11/27 05:05:13;;;;;;;2.03;0.87;;;7.40;99.90;;;;;;5086960;28;20199;-88
2022/11/27 05:07:45;;;;;;;0.73;0.50;;;7.40;99.90;;;;;;5089510;28;20589;-88
2022/11/27 05:10:16;;;;;;;1.67;0.57;;;7.40;99.90;;;;;;5090726;28;20218;-88
2022/11/27 05:12:48;;;;;;;2.30;0.80;;;7.40;99.90;;;;;;5094442;28;20930;-87
2022/11/27 05:15:20;;;;;;;1.07;0.60;;;7.40;99.90;;;;;;5086756;28;20208;-87
2022/11/27 05:17:52;;;;;;;2.30;0.90;;;7.40;99.90;;;;;;5091415;28;20289;-88
2022/11/27 05:20:27;;;;;;;1.27;0.67;;;7.40;99.90;;;;;;5091086;28;20239;-88
2022/11/27 05:22:58;;;;;;;1.47;0.80;;;7.40;99.90;;;;;;5090496;28;20277;-88
2022/11/27 05:25:29;;;;;;;1.47;0.60;;;7.40;99.90;;;;;;5089638;28;20246;-87
2022/11/27 05:28:01;;;;;;;3.07;0.80;;;7.40;99.90;;;;;;5090204;28;20235;-88
2022/11/27 05:30:32;;;;;;;1.30;0.80;;;7.40;99.90;;;;;;5089343;28;20212;-87
2022/11/27 05:33:06;;;;;;;1.63;0.67;;;7.40;99.90;;;;;;5094469;28;20210;-87
2022/11/27 05:35:41;;;;;;;1.27;0.60;;;7.40;99.90;;;;;;5096632;28;20890;-88
2022/11/27 05:38:13;;;;;;;0.63;0.60;;;7.40;99.90;;;;;;5093344;28;20492;-88
2022/11/27 05:40:47;;;;;;;1.33;0.50;;;7.40;99.90;;;;;;5095447;28;20286;-86
2022/11/27 05:43:22;;;;;;;1.80;0.60;;;7.40;99.90;;;;;;5082938;28;20215;-88
2022/11/27 05:45:54;;;;;;;1.30;0.73;;;7.30;99.90;;;;;;5095819;28;20238;-88
2022/11/27 05:48:28;;;;;;;0.57;0.57;;;7.30;99.90;;;;;;5078324;28;20235;-88
2022/11/27 05:51:02;;;;;;;0.70;0.40;;;7.30;99.90;;;;;;5092842;28;20240;-87
2022/11/27 05:53:35;;;;;;;1.17;0.60;;;7.30;99.90;;;;;;5102601;28;20206;-89
2022/11/27 05:56:10;;;;;;;0.73;0.50;;;7.30;99.90;;;;;;5090915;28;20199;-87
2022/11/27 05:58:44;;;;;;;0.87;0.50;;;7.30;99.90;;;;;;5098021;28;20267;-86
2022/11/27 06:01:18;;;;;;;0.90;0.50;;;7.30;99.90;;;;;;5097410;28;20222;-89
2022/11/27 06:03:51;;;;;;;0.60;0.57;;;7.20;99.90;;;;;;5096373;28;20214;-87
2022/11/27 06:06:24;;;;;;;0.80;0.53;;;7.20;99.90;;;;;;5106218;28;20311;-88
2022/11/27 06:08:55;;;;;;;1.13;0.80;;;7.10;99.90;;;;;;5097404;28;20645;-87
2022/11/27 06:11:27;;;;;;;1.27;0.50;;;7.10;99.90;;;;;;5098188;28;20195;-88
2022/11/27 06:13:58;;;;;;;0.60;0.60;;;7.10;99.90;;;;;;5096040;28;20203;-88
2022/11/27 06:16:30;;;;;;;1.43;0.60;;;7.10;99.90;;;;;;5100635;28;20223;-88
2022/11/27 06:19:01;;;;;;;0.60;0.50;;;7.10;99.90;;;;;;5097115;28;20213;-87
2022/11/27 06:21:35;;;;;;;3.57;0.70;;;7.10;99.90;;;;;;5096205;28;20560;-86
2022/11/27 06:24:07;;;;;;;1.70;0.60;;;7.10;99.90;;;;;;5092739;28;20207;-85
2022/11/27 06:26:38;;;;;;;1.07;0.60;;;7.00;99.90;;;;;;5095119;28;20199;-88
2022/11/27 06:29:10;;;;;;;0.40;0.40;;;7.00;99.90;;;;;;5096449;28;20230;-88
2022/11/27 06:31:42;;;;;;;1.90;0.90;;;7.10;99.90;;;;;;5094290;28;20232;-85
2022/11/27 06:34:15;;;;;;;0.83;0.50;;;7.10;99.90;;;;;;5092192;28;20209;-87
2022/11/27 06:36:54;;;;;;;0.38;0.38;;;7.10;99.90;;;;;;4906809;28;10001272;-86
2022/11/27 06:39:26;;;;;;;0.57;0.57;;;7.20;99.90;;;;;;5083048;28;20531;-86
2022/11/27 06:41:57;;;;;;;0.50;0.47;;;7.20;99.90;;;;;;5092516;28;20211;-90
2022/11/27 06:44:30;;;;;;;1.83;0.57;;;7.20;99.90;;;;;;5085786;28;20200;-86
2022/11/27 06:47:01;;;;;;;0.40;0.40;;;7.20;99.90;;;;;;5090561;28;20630;-88
2022/11/27 06:49:33;;;;;;;0.50;0.43;;;7.20;99.90;;;;;;5087694;28;20280;-88
2022/11/27 06:52:07;;;;;;;0.83;0.40;;;7.10;99.90;;;;;;5087687;28;20678;-88
2022/11/27 06:54:39;;;;;;;0.40;0.40;;;7.10;99.90;;;;;;5091982;28;20225;-87
2022/11/27 06:57:14;;;;;;;0.90;0.50;;;7.10;99.90;;;;;;5086923;28;20248;-87
2022/11/27 06:59:46;;;;;;;1.23;0.53;;;7.10;99.90;;;;;;5090717;28;20545;-87
2022/11/27 07:02:18;;;;;;;2.17;0.43;;;7.10;99.90;;;;;;5088556;28;20681;-90
2022/11/27 07:04:51;;;;;;;1.33;0.70;;;7.10;99.90;;;;;;5089603;28;20195;-88
2022/11/27 07:07:26;;;;;;;1.80;0.47;;;7.00;99.90;;;;;;5094649;28;21078;-88
2022/11/27 07:09:58;;;;;;;1.23;0.60;;;7.00;99.90;;;;;;5090553;28;20229;-87
2022/11/27 07:12:33;;;;;;;3.20;0.80;;;7.10;99.90;;;;;;5074616;28;20206;-87
2022/11/27 07:15:10;;;;;;;1.00;0.60;;;7.00;99.90;;;;;;5088789;28;20211;-89
2022/11/27 07:17:44;;;;;;;0.60;0.60;;;7.10;99.90;;;;;;5087611;28;20664;-89
2022/11/27 07:20:16;;;;;;;1.90;0.70;;;6.90;99.90;;;;;;5089637;28;20210;-88
2022/11/27 07:22:54;;;;;;;2.40;0.60;;;7.00;99.90;;;;;;5079763;28;20199;-88
2022/11/27 07:25:27;;;;;;;0.80;0.50;;;7.00;99.90;;;;;;5094003;28;20214;-89
2022/11/27 07:27:58;;;;;;;0.90;0.67;;;7.00;99.90;;;;;;5094017;28;20214;-89
2022/11/27 07:30:30;;;;;;;0.80;0.50;;;6.90;99.90;;;;;;5093840;28;20211;-87
2022/11/27 07:33:02;;;;;;;0.43;0.43;;;6.90;99.90;;;;;;5080120;28;20236;-88
2022/11/27 07:35:34;;;;;;;0.70;0.67;;;6.90;99.90;;;;;;5092939;28;20253;-86
2022/11/27 07:38:09;;;;;;;1.13;0.70;;;6.80;99.90;;;;;;5093410;28;20343;-88
2022/11/27 07:40:42;;;;;;;0.57;0.57;;;6.80;99.90;;;;;;5089905;28;20202;-87
2022/11/27 07:43:13;;;;;;;1.40;0.53;;;6.80;99.90;;;;;;5091576;28;20224;-88
2022/11/27 07:45:46;;;;;;;1.93;1.20;;;6.80;99.90;;;;;;5092007;28;20233;-87
2022/11/27 07:48:19;;;;;;;1.73;0.57;;;6.80;99.90;;;;;;5091777;28;20207;-88
2022/11/27 07:50:50;;;;;;;2.30;0.73;;;6.80;99.90;;;;;;5092533;28;20199;-88
2022/11/27 07:53:24;;;;;;;3.23;0.63;;;6.80;99.90;;;;;;5092562;28;20219;-89
2022/11/27 07:55:55;;;;;;;2.90;0.63;;;6.90;99.90;;;;;;5088043;28;20291;-88
2022/11/27 07:58:27;;;;;;;0.90;0.60;;;6.90;99.90;;;;;;5093448;28;20203;-88
2022/11/27 08:00:58;;;;;;;0.97;0.40;;;6.90;99.90;;;;;;5094128;28;20206;-87
2022/11/27 08:03:30;;;;;;;1.60;0.60;;;7.00;99.90;;;;;;5093632;28;20606;-89
2022/11/27 08:06:01;;;;;;;1.50;0.60;;;7.00;99.90;;;;;;5094181;28;20207;-88
2022/11/27 08:08:34;;;;;;;2.50;0.57;;;7.00;99.90;;;;;;5093131;28;20269;-87
2022/11/27 08:11:07;;;;;;;2.13;0.50;;;7.10;99.90;;;;;;5096025;28;20215;-87
2022/11/27 08:13:38;;;;;;;0.97;0.53;;;7.10;99.90;;;;;;5066118;28;20211;-88
2022/11/27 08:16:10;;;;;;;3.13;0.87;;;7.20;99.90;;;;;;5094198;28;20723;-90
2022/11/27 08:18:42;;;;;;;0.87;0.50;;;7.20;99.90;;;;;;5097633;28;20206;-87
2022/11/27 08:21:14;;;;;;;0.40;0.40;;;7.20;99.90;;;;;;5083146;28;20227;-87
2022/11/27 08:23:47;;;;;;;1.37;0.50;;;7.20;99.90;;;;;;5092919;28;20242;-88
2022/11/27 08:26:20;;;;;;;0.87;0.50;;;7.20;99.90;;;;;;5086903;28;20222;-89
2022/11/27 08:28:54;;;;;;;1.07;0.70;;;7.20;99.90;;;;;;5091371;28;20238;-86
2022/11/27 08:31:27;;;;;;;2.93;0.70;;;7.20;99.90;;;;;;5093156;28;20242;-87
2022/11/27 08:33:59;;;;;;;1.87;0.73;;;7.20;99.90;;;;;;5091230;28;20213;-88
2022/11/27 08:36:31;;;;;;;2.40;0.80;;;7.20;99.90;;;;;;5088431;28;20647;-87
2022/11/27 08:39:05;;;;;;;2.73;0.80;;;7.20;99.90;;;;;;5091076;28;20199;-87
2022/11/27 08:41:38;;;;;;;2.53;0.67;;;7.20;99.90;;;;;;5077775;28;20253;-87
